Time;durP1;ratioP1;P1;durP2;ratioP2;P2;SDS_P1;SDS_P2;PMS_P1;PMS_P2;Temp;Humidity;BMP_temperature;BMP_pressure;BME280_temperature;BME280_humidity;BME280_pressure;Samples;Min_cycle;Max_cycle;Signal;HPM_P1;HPM_P2
2021/10/01 00:01:32;;;;;;;10.90;7.47;;;;;;;13.89;62.36;96068.38;4991459;28;20453;-63
2021/10/01 00:03:59;;;;;;;15.37;8.20;;;;;;;13.95;62.39;96056.84;4997528;28;20834;-65
2021/10/01 00:06:26;;;;;;;10.80;7.30;;;;;;;13.91;62.20;96058.38;5010888;28;20448;-65
2021/10/01 00:08:53;;;;;;;11.43;7.40;;;;;;;13.95;62.32;96067.41;5010522;28;20481;-63
2021/10/01 00:11:20;;;;;;;12.03;7.90;;;;;;;13.90;62.39;96059.44;4996330;28;20481;-65
2021/10/01 00:13:48;;;;;;;10.57;7.30;;;;;;;13.89;62.28;96060.47;5001947;28;21366;-65
2021/10/01 00:16:17;;;;;;;11.53;7.70;;;;;;;13.98;62.22;96045.81;4994088;28;20956;-63
2021/10/01 00:18:44;;;;;;;12.97;6.93;;;;;;;13.94;62.13;96056.06;5010541;28;20924;-64
2021/10/01 00:21:11;;;;;;;12.67;7.10;;;;;;;13.89;61.86;96036.75;5007230;28;20451;-65
2021/10/01 00:23:38;;;;;;;10.20;7.33;;;;;;;13.89;62.28;96053.38;4998959;28;20460;-63
2021/10/01 00:26:06;;;;;;;20.87;15.60;;;;;;;13.88;62.21;96051.00;5013695;28;20493;-64
2021/10/01 00:28:33;;;;;;;17.53;13.50;;;;;;;13.74;63.13;96050.56;5006700;28;20440;-67
2021/10/01 00:31:00;;;;;;;16.97;9.87;;;;;;;13.74;62.99;96050.56;5014690;28;20444;-65
2021/10/01 00:33:28;;;;;;;18.33;14.10;;;;;;;13.80;62.73;96054.06;5010457;28;20907;-63
2021/10/01 00:35:55;;;;;;;18.63;10.97;;;;;;;13.76;62.76;96039.78;4996837;28;20459;-65
2021/10/01 00:38:21;;;;;;;13.27;8.20;;;;;;;13.71;62.89;96039.72;4995923;28;20563;-65
2021/10/01 00:40:48;;;;;;;9.70;7.67;;;;;;;13.75;62.89;96046.09;5010913;28;20441;-65
2021/10/01 00:43:16;;;;;;;13.00;7.83;;;;;;;13.81;62.41;96045.13;5010357;28;20447;-64
2021/10/01 00:45:43;;;;;;;10.10;7.00;;;;;;;13.62;62.94;96039.38;5010755;28;20483;-65
2021/10/01 00:48:10;;;;;;;9.77;7.70;;;;;;;13.58;63.84;96040.09;5010101;28;20508;-63
2021/10/01 00:50:37;;;;;;;16.07;7.80;;;;;;;13.66;63.14;96042.31;5018991;28;20824;-65
2021/10/01 00:53:05;;;;;;;11.60;7.60;;;;;;;13.67;63.77;96043.88;5013161;28;20958;-63
2021/10/01 00:55:32;;;;;;;10.53;7.70;;;;;;;13.64;63.82;96039.94;5008800;28;20543;-65
2021/10/01 00:57:59;;;;;;;9.53;8.07;;;;;;;13.55;64.41;96040.59;5009294;28;20461;-65
2021/10/01 01:00:29;;;;;;;11.97;7.53;;;;;;;13.63;63.99;96037.53;5007927;28;20567;-63
2021/10/01 01:03:04;;;;;;;11.30;7.30;;;;;;;13.73;63.28;96037.63;5008431;28;20444;-65
2021/10/01 01:05:54;;;;;;;10.13;7.37;;;;;;;13.74;63.35;96044.53;5009648;28;20448;-63
2021/10/01 01:08:28;;;;;;;10.93;6.97;;;;;;;13.78;63.42;96040.31;5009385;28;20461;-63
2021/10/01 01:11:04;;;;;;;11.83;7.27;;;;;;;13.75;63.25;96046.91;5009069;28;20445;-64
2021/10/01 01:13:46;;;;;;;11.17;7.50;;;;;;;13.73;63.73;96033.19;5008782;28;20884;-65
2021/10/01 01:16:22;;;;;;;9.17;6.77;;;;;;;13.76;63.44;96037.13;5007938;28;20451;-65
2021/10/01 01:18:55;;;;;;;13.60;7.60;;;;;;;13.78;63.50;96030.59;5008284;28;20472;-66
2021/10/01 01:21:35;;;;;;;13.40;7.23;;;;;;;13.78;63.55;96033.22;5010212;28;20445;-65
2021/10/01 01:24:49;;;;;;;11.27;7.60;;;;;;;13.72;63.21;96020.25;5008294;28;20506;-64
2021/10/01 01:27:45;;;;;;;12.33;7.50;;;;;;;13.79;63.42;96034.03;5000889;28;20441;-64
2021/10/01 01:30:19;;;;;;;11.33;7.07;;;;;;;13.85;63.09;96019.88;4997197;28;20477;-64
2021/10/01 01:33:01;;;;;;;18.53;8.07;;;;;;;13.64;63.92;96026.75;5007469;28;20441;-64
2021/10/01 01:35:34;;;;;;;11.97;7.23;;;;;;;13.66;64.04;96026.50;5007845;28;20479;-62
2021/10/01 01:38:14;;;;;;;11.53;7.20;;;;;;;13.80;63.46;96032.97;5007349;28;20535;-63
2021/10/01 01:40:54;;;;;;;9.13;7.17;;;;;;;13.80;64.11;96032.97;5008902;28;20583;-63
2021/10/01 01:43:23;;;;;;;10.60;7.37;;;;;;;13.75;63.63;96025.81;5007215;28;20845;-64
2021/10/01 01:45:51;;;;;;;16.03;12.50;;;;;;;13.80;63.79;96027.69;5008043;28;21013;-66
2021/10/01 01:48:18;;;;;;;38.30;26.23;;;;;;;13.81;63.98;96024.03;5007430;28;20937;-64
2021/10/01 01:50:47;;;;;;;12.90;9.07;;;;;;;13.78;64.59;96006.06;5007921;28;20437;-65
2021/10/01 01:53:17;;;;;;;13.93;8.10;;;;;;;13.92;65.35;96026.50;5008351;28;20457;-67
2021/10/01 01:55:46;;;;;;;10.37;7.30;;;;;;;14.03;64.24;96022.16;5007893;28;21036;-65
2021/10/01 01:58:17;;;;;;;15.23;7.40;;;;;;;13.96;64.05;96013.63;5007379;28;20472;-65
2021/10/01 02:01:12;;;;;;;14.73;7.63;;;;;;;13.97;64.19;96037.13;5007288;28;20810;-64
2021/10/01 02:03:59;;;;;;;12.20;7.57;;;;;;;13.93;64.18;96028.13;5007669;28;20496;-64
2021/10/01 02:06:30;;;;;;;11.00;7.47;;;;;;;13.96;64.21;96027.63;5004376;28;20833;-65
2021/10/01 02:08:59;;;;;;;10.00;7.53;;;;;;;14.04;63.52;96034.28;5007686;28;20465;-64
2021/10/01 02:11:28;;;;;;;10.27;7.33;;;;;;;14.02;64.15;96031.09;5007147;28;20506;-65
2021/10/01 02:13:58;;;;;;;12.37;7.60;;;;;;;13.93;63.80;96017.59;5007431;28;20895;-64
2021/10/01 02:16:27;;;;;;;11.30;7.23;;;;;;;14.04;63.67;96031.66;5008569;28;20552;-65
2021/10/01 02:18:57;;;;;;;10.87;7.17;;;;;;;14.04;63.83;96029.00;5008182;28;20487;-63
2021/10/01 02:21:27;;;;;;;12.53;8.33;;;;;;;14.06;64.15;96033.00;5006752;28;20433;-64
2021/10/01 02:23:55;;;;;;;11.23;7.33;;;;;;;13.93;64.25;96032.59;5020260;28;20562;-64
2021/10/01 02:26:34;;;;;;;12.40;8.17;;;;;;;14.00;64.40;96028.72;5007669;28;20472;-64
2021/10/01 02:29:29;;;;;;;10.97;7.17;;;;;;;14.04;63.83;96029.81;5007832;28;20526;-63
2021/10/01 02:32:09;;;;;;;11.73;7.47;;;;;;;14.00;63.89;96038.44;5007312;28;20547;-63
2021/10/01 02:34:43;;;;;;;14.23;7.07;;;;;;;14.13;63.16;96032.78;5009713;28;20445;-63
2021/10/01 02:37:15;;;;;;;12.00;7.47;;;;;;;14.06;63.48;96019.03;5027281;28;20456;-63
2021/10/01 02:39:44;;;;;;;13.63;7.63;;;;;;;14.13;63.97;96032.78;5012301;28;21035;-63
2021/10/01 02:42:13;;;;;;;11.63;7.80;;;;;;;14.12;63.60;96018.81;5026802;28;20449;-63
2021/10/01 02:44:42;;;;;;;13.50;8.00;;;;;;;14.01;63.74;96032.16;5011069;28;20535;-63
2021/10/01 02:47:10;;;;;;;12.20;7.83;;;;;;;13.85;64.28;95998.81;5026751;28;20560;-63
2021/10/01 02:49:38;;;;;;;11.83;7.73;;;;;;;14.06;63.82;96033.00;5010865;28;20440;-66
2021/10/01 02:52:20;;;;;;;12.93;7.83;;;;;;;14.09;63.51;96021.94;5010066;28;20890;-64
2021/10/01 02:55:01;;;;;;;12.80;8.07;;;;;;;14.06;63.53;96026.94;5011036;28;20539;-65
2021/10/01 02:57:38;;;;;;;13.60;7.83;;;;;;;14.02;63.87;96037.16;5010212;28;20484;-65
2021/10/01 03:00:07;;;;;;;11.83;7.63;;;;;;;13.84;64.16;96010.38;5008631;28;20479;-65
2021/10/01 03:02:36;;;;;;;11.30;8.10;;;;;;;13.94;64.12;96023.66;5007014;28;20445;-63
2021/10/01 03:05:04;;;;;;;12.53;7.80;;;;;;;14.03;63.26;96027.44;4991434;28;20449;-64
2021/10/01 03:07:34;;;;;;;12.60;7.13;;;;;;;14.10;63.30;96033.28;5010094;28;21040;-63
2021/10/01 03:10:04;;;;;;;9.67;7.33;;;;;;;14.08;63.46;96030.09;5010801;28;20978;-64
2021/10/01 03:12:32;;;;;;;11.70;6.87;;;;;;;14.05;63.84;96033.25;5010921;28;20440;-64
2021/10/01 03:15:01;;;;;;;10.80;6.90;;;;;;;14.10;63.45;96033.28;5010470;28;20453;-64
2021/10/01 03:17:32;;;;;;;11.67;7.00;;;;;;;14.03;64.12;96028.22;5010168;28;20451;-63
2021/10/01 03:20:00;;;;;;;13.10;7.47;;;;;;;14.17;63.72;96036.53;5010308;28;20474;-63
2021/10/01 03:22:32;;;;;;;19.30;12.83;;;;;;;14.04;64.04;96031.66;5009432;28;20437;-64
2021/10/01 03:25:00;;;;;;;61.47;52.77;;;;;;;13.92;64.09;96025.75;5011499;28;20456;-65
2021/10/01 03:27:31;;;;;;;23.87;18.80;;;;;;;13.96;63.92;96029.44;5009453;28;20449;-66
2021/10/01 03:30:00;;;;;;;9.93;6.70;;;;;;;13.79;64.01;96036.66;5006310;28;20452;-64
2021/10/01 03:32:30;;;;;;;11.70;6.63;;;;;;;13.79;64.35;96026.94;5012267;28;20458;-63
2021/10/01 03:35:01;;;;;;;13.00;6.83;;;;;;;13.87;63.61;96020.41;5009986;28;20440;-64
2021/10/01 03:37:33;;;;;;;13.97;6.67;;;;;;;13.91;63.71;96021.50;5022034;28;20443;-64
2021/10/01 03:40:04;;;;;;;9.63;6.30;;;;;;;14.06;63.64;96033.00;5011911;28;20492;-63
2021/10/01 03:42:32;;;;;;;13.53;6.43;;;;;;;14.06;63.86;96021.66;5009731;28;20485;-64
2021/10/01 03:44:59;;;;;;;10.73;7.10;;;;;;;14.01;63.60;96013.72;5009395;28;20458;-66
2021/10/01 03:47:27;;;;;;;10.17;6.37;;;;;;;13.99;64.12;96026.34;5009404;28;20456;-65
2021/10/01 03:49:57;;;;;;;11.83;6.53;;;;;;;13.97;64.16;96017.88;5009890;28;20476;-65
2021/10/01 03:52:24;;;;;;;9.10;6.47;;;;;;;13.95;64.27;96018.13;5010508;28;20444;-67
2021/10/01 03:54:52;;;;;;;13.83;7.20;;;;;;;13.92;64.28;96020.47;5007343;28;20880;-64
2021/10/01 03:57:20;;;;;;;12.50;6.97;;;;;;;13.98;64.34;96022.09;5009509;28;20966;-65
2021/10/01 03:59:49;;;;;;;9.43;6.67;;;;;;;13.81;64.45;96018.78;5007062;28;20585;-63
2021/10/01 04:02:16;;;;;;;8.97;6.50;;;;;;;13.91;64.12;96026.75;5008127;28;20449;-66
2021/10/01 04:04:43;;;;;;;10.07;6.47;;;;;;;13.92;64.04;96029.16;5009546;28;20467;-63
2021/10/01 04:07:10;;;;;;;9.17;6.00;;;;;;;13.95;64.10;96019.97;5021353;28;20451;-63
2021/10/01 04:09:37;;;;;;;10.93;6.57;;;;;;;14.00;63.92;96033.19;5009786;28;20437;-65
2021/10/01 04:12:09;;;;;;;10.47;6.47;;;;;;;13.93;64.27;96016.78;5009877;28;20452;-64
2021/10/01 04:14:36;;;;;;;7.90;6.63;;;;;;;13.89;64.58;96026.22;5006271;28;20442;-65
2021/10/01 04:17:03;;;;;;;11.20;6.63;;;;;;;13.90;64.09;96025.19;5001852;28;20526;-64
2021/10/01 04:19:30;;;;;;;10.70;6.90;;;;;;;13.90;64.52;96022.56;5008494;28;20449;-67
2021/10/01 04:22:04;;;;;;;126.97;15.30;;;;;;;13.67;65.53;96020.19;4995069;28;20532;-68
2021/10/01 04:24:46;;;;;;;22.60;8.30;;;;;;;13.83;65.66;96021.97;5006462;28;20477;-65
2021/10/01 04:27:13;;;;;;;12.37;7.27;;;;;;;13.91;64.84;96022.31;5011960;28;20559;-67
2021/10/01 04:29:41;;;;;;;11.53;7.43;;;;;;;13.79;65.64;96026.94;5011412;28;20433;-66
2021/10/01 04:32:11;;;;;;;9.37;7.27;;;;;;;13.82;65.17;96028.25;5005644;28;20461;-64
2021/10/01 04:35:00;;;;;;;12.93;7.10;;;;;;;13.67;65.81;96038.63;5006579;28;20572;-68
2021/10/01 04:37:27;;;;;;;13.53;7.57;;;;;;;13.77;65.59;96028.22;5025629;28;20439;-65
2021/10/01 04:39:58;;;;;;;10.17;7.20;;;;;;;13.68;66.43;96029.69;5007399;28;21033;-63
2021/10/01 04:42:26;;;;;;;12.70;7.30;;;;;;;13.82;65.59;96034.31;4992304;28;20775;-65
2021/10/01 04:44:53;;;;;;;132.70;111.77;;;;;;;13.80;66.50;96044.31;5009717;28;20458;-68
2021/10/01 04:47:21;;;;;;;72.60;54.30;;;;;;;13.96;65.21;96029.44;4997455;28;20823;-67
2021/10/01 04:49:48;;;;;;;66.50;58.60;;;;;;;14.12;64.86;96041.75;5008879;28;20456;-66
2021/10/01 04:52:15;;;;;;;20.63;11.80;;;;;;;14.05;64.67;96046.44;5004782;28;20445;-64
2021/10/01 04:54:42;;;;;;;15.43;7.37;;;;;;;13.89;64.55;96042.03;5020882;28;20540;-64
2021/10/01 04:57:09;;;;;;;18.20;10.67;;;;;;;13.92;64.97;96049.47;5014386;28;20441;-68
2021/10/01 04:59:55;;;;;;;231.37;195.43;;;;;;;14.20;64.37;96054.47;5010737;28;20888;-69
2021/10/01 05:02:40;;;;;;;41.67;31.87;;;;;;;14.22;64.06;96062.91;5009196;28;20463;-67
2021/10/01 05:05:15;;;;;;;15.57;9.17;;;;;;;14.10;63.42;96060.44;5005802;28;20441;-67
2021/10/01 05:08:04;;;;;;;9.17;7.50;;;;;;;14.14;63.29;96066.81;4998663;28;20437;-68
2021/10/01 05:10:50;;;;;;;10.83;7.23;;;;;;;14.15;63.07;96064.97;5012904;28;20603;-69
2021/10/01 05:13:35;;;;;;;11.23;7.20;;;;;;;14.08;63.37;96072.28;5018133;28;20491;-67
2021/10/01 05:16:21;;;;;;;20.53;7.50;;;;;;;13.98;63.77;96074.78;4997124;28;20440;-68
2021/10/01 05:19:26;;;;;;;11.77;7.20;;;;;;;13.98;63.83;96072.16;5007349;28;20459;-69
2021/10/01 05:22:13;;;;;;;13.60;6.90;;;;;;;13.93;63.93;96080.03;5003712;28;20532;-69
2021/10/01 05:24:40;;;;;;;15.47;7.30;;;;;;;13.84;63.67;96068.31;5000149;28;20441;-69
2021/10/01 05:27:07;;;;;;;126.10;98.27;;;;;;;13.81;64.15;96037.22;5008064;28;20445;-66
2021/10/01 05:29:34;;;;;;;115.33;100.60;;;;;;;14.10;63.95;96080.75;5006292;28;20564;-67
2021/10/01 05:32:01;;;;;;;16.23;9.37;;;;;;;13.80;63.32;96048.78;5003720;28;20444;-66
2021/10/01 05:34:28;;;;;;;14.37;7.77;;;;;;;14.05;62.96;96078.06;5002892;28;20450;-67
2021/10/01 05:36:56;;;;;;;11.53;7.47;;;;;;;14.12;62.79;96081.28;4997093;28;20827;-67
2021/10/01 05:39:22;;;;;;;10.67;6.70;;;;;;;13.98;63.30;96077.44;5007465;28;20885;-67
2021/10/01 05:41:49;;;;;;;17.30;8.40;;;;;;;13.97;63.52;96081.13;5011819;28;20574;-64
2021/10/01 05:44:16;;;;;;;13.67;8.10;;;;;;;13.88;63.67;96074.69;5002659;28;20449;-69
2021/10/01 05:46:45;;;;;;;15.53;7.77;;;;;;;13.99;63.03;96084.31;4997886;28;20443;-64
2021/10/01 05:49:40;;;;;;;12.30;7.77;;;;;;;14.11;63.36;96092.88;5003655;28;20507;-65
2021/10/01 05:53:24;;;;;;;12.13;7.67;;;;;;;14.04;62.76;96092.25;5006647;28;20499;-65
2021/10/01 05:55:31;;;;;;;12.70;7.93;;;;;;;14.11;62.12;96084.94;5008597;28;20982;-66
2021/10/01 05:58:42;;;;;;;13.33;8.47;;;;;;;14.19;62.42;96093.22;5008875;28;20480;-64
2021/10/01 06:01:28;;;;;;;15.17;8.07;;;;;;;14.06;63.26;96085.72;4995673;28;20492;-65
2021/10/01 06:03:55;;;;;;;14.40;7.73;;;;;;;14.14;63.09;96102.94;5007069;28;20853;-65
2021/10/01 06:06:22;;;;;;;19.77;8.47;;;;;;;14.10;63.29;96096.56;5017442;28;20448;-65
2021/10/01 06:08:48;;;;;;;15.57;8.10;;;;;;;14.14;63.09;96089.75;5015489;28;20448;-66
2021/10/01 06:11:15;;;;;;;14.67;7.60;;;;;;;14.09;62.28;96079.13;5012667;28;20441;-67
2021/10/01 06:13:42;;;;;;;17.83;8.13;;;;;;;14.14;62.81;96101.06;5011806;28;20444;-70
2021/10/01 06:16:09;;;;;;;12.27;6.80;;;;;;;14.04;62.41;96093.06;5012668;28;20535;-65
2021/10/01 06:18:36;;;;;;;12.20;6.83;;;;;;;14.08;62.64;96104.72;5013424;28;20502;-67
2021/10/01 06:21:03;;;;;;;12.87;7.30;;;;;;;14.14;62.38;96097.66;5014136;28;20494;-65
2021/10/01 06:23:34;;;;;;;17.37;7.03;;;;;;;14.17;62.60;96110.34;5014821;28;20444;-64
2021/10/01 06:26:03;;;;;;;18.77;7.43;;;;;;;14.25;62.80;96099.31;5013761;28;20444;-64
2021/10/01 06:28:31;;;;;;;18.23;6.40;;;;;;;14.13;63.17;96109.22;5015168;28;20767;-67
2021/10/01 06:31:01;;;;;;;13.20;7.60;;;;;;;14.21;62.83;96108.78;5013696;28;20449;-64
2021/10/01 06:33:48;;;;;;;10.70;7.17;;;;;;;14.31;62.55;96108.91;5012574;28;20542;-66
2021/10/01 06:36:19;;;;;;;17.43;8.53;;;;;;;14.36;63.15;96106.31;5012579;28;20445;-65
2021/10/01 06:38:47;;;;;;;15.10;8.00;;;;;;;14.31;63.07;96108.91;5012974;28;20523;-66
2021/10/01 06:41:14;;;;;;;12.63;7.97;;;;;;;14.52;62.96;96118.63;5011839;28;20479;-64
2021/10/01 06:43:43;;;;;;;10.47;8.23;;;;;;;14.57;61.71;96121.31;5012666;28;20444;-67
2021/10/01 08:20:25;;;;;;;16.27;6.63;;;;;;;16.90;40.26;96099.16;5012385;28;20444;-65
2021/10/01 08:22:52;;;;;;;14.03;5.97;;;;;;;16.70;39.41;96091.19;5010923;28;20471;-66
2021/10/01 08:25:19;;;;;;;11.33;6.17;;;;;;;16.61;41.19;96087.50;5010655;28;20449;-65
2021/10/01 08:27:45;;;;;;;11.50;6.90;;;;;;;16.47;42.45;96091.72;5010050;28;20495;-65
2021/10/01 08:30:13;;;;;;;11.50;5.87;;;;;;;16.47;40.85;96090.88;5010868;28;20453;-66
2021/10/01 08:32:41;;;;;;;13.13;6.53;;;;;;;16.47;40.86;96091.72;5008831;28;20989;-65
2021/10/01 08:35:10;;;;;;;15.20;6.37;;;;;;;16.55;41.09;96085.88;5010711;28;20448;-64
2021/10/01 08:37:39;;;;;;;13.47;6.70;;;;;;;16.69;40.95;96079.03;5008801;28;20463;-65
2021/10/01 08:40:07;;;;;;;8.10;5.83;;;;;;;16.83;40.72;96090.69;5010558;28;20528;-66
2021/10/01 08:42:43;;;;;;;11.30;5.50;;;;;;;16.87;39.33;96081.16;5008291;28;20603;-66
2021/10/01 08:45:12;;;;;;;18.70;7.47;;;;;;;16.95;39.61;96083.25;5010583;28;20445;-66
2021/10/01 08:47:40;;;;;;;13.63;7.20;;;;;;;16.89;39.45;96068.44;5009928;28;20444;-64
2021/10/01 08:50:09;;;;;;;10.70;6.07;;;;;;;16.61;38.50;96071.63;5009918;28;20483;-65
2021/10/01 08:52:37;;;;;;;10.50;6.30;;;;;;;16.26;39.15;96070.75;5009617;28;20522;-66
2021/10/01 08:55:09;;;;;;;14.13;6.93;;;;;;;16.44;38.66;96075.56;5023834;28;20441;-65
2021/10/01 08:57:36;;;;;;;9.87;6.10;;;;;;;16.37;38.02;96085.59;5009437;28;21086;-66
2021/10/01 09:00:09;;;;;;;8.93;5.77;;;;;;;16.42;38.66;96080.31;5008617;28;20452;-64
2021/10/01 09:02:37;;;;;;;13.20;7.73;;;;;;;16.46;39.27;96084.78;4990017;28;20603;-63
2021/10/01 09:05:05;;;;;;;11.07;6.10;;;;;;;16.44;38.56;96092.19;5004971;28;20815;-63
2021/10/01 09:07:32;;;;;;;12.27;5.57;;;;;;;16.20;37.85;96085.81;5023364;28;20768;-63
2021/10/01 09:09:59;;;;;;;11.50;5.93;;;;;;;16.48;37.75;96081.91;5009487;28;20510;-65
2021/10/01 09:12:26;;;;;;;20.53;6.17;;;;;;;16.73;38.25;96077.44;5022781;28;20816;-64
2021/10/01 09:14:56;;;;;;;14.30;6.43;;;;;;;16.83;37.71;96084.59;5009933;28;20974;-63
2021/10/01 09:17:30;;;;;;;8.33;5.80;;;;;;;16.98;37.86;96082.75;5021969;28;20436;-64
2021/10/01 09:19:58;;;;;;;12.03;5.83;;;;;;;16.94;37.35;96084.31;5009999;28;20471;-66
2021/10/01 09:22:32;;;;;;;9.03;6.40;;;;;;;16.94;36.87;96055.19;5009011;28;20484;-64
2021/10/01 09:25:17;;;;;;;11.30;6.27;;;;;;;17.11;36.98;96078.75;5010066;28;20523;-64
2021/10/01 09:27:50;;;;;;;19.83;6.33;;;;;;;17.41;37.29;96080.56;5013746;28;20544;-64
2021/10/01 09:30:21;;;;;;;12.37;5.70;;;;;;;17.39;36.43;96077.38;5015139;28;20458;-65
2021/10/01 09:33:06;;;;;;;12.57;6.00;;;;;;;17.13;36.23;96077.41;5014205;28;20455;-63
2021/10/01 09:35:34;;;;;;;10.90;6.97;;;;;;;17.43;36.33;96071.25;5014664;28;20506;-68
2021/10/01 09:38:12;;;;;;;14.10;6.07;;;;;;;17.45;37.36;96077.06;5012399;28;20471;-64
2021/10/01 09:40:41;;;;;;;10.87;7.47;;;;;;;17.24;37.41;96076.31;5009594;28;20445;-64
2021/10/01 09:43:26;;;;;;;12.63;6.53;;;;;;;17.34;37.32;96069.41;5008061;28;20456;-67
2021/10/01 09:46:05;;;;;;;12.10;5.97;;;;;;;17.50;37.69;96063.06;5021146;28;20502;-67
2021/10/01 09:48:37;;;;;;;11.17;5.77;;;;;;;17.53;37.09;96062.50;5023421;28;20448;-65
2021/10/01 09:51:15;;;;;;;12.13;5.90;;;;;;;17.51;36.51;96060.13;5009186;28;20447;-65
2021/10/01 09:53:48;;;;;;;8.23;5.43;;;;;;;17.43;37.61;96067.78;5009632;28;20440;-64
2021/10/01 09:56:30;;;;;;;10.13;5.77;;;;;;;17.56;36.92;96051.34;5008903;28;20667;-64
2021/10/01 09:59:04;;;;;;;13.37;5.53;;;;;;;17.97;37.02;96058.88;4997024;28;20509;-66
2021/10/01 10:01:32;;;;;;;7.63;5.47;;;;;;;18.18;36.68;96017.09;4995169;28;20527;-67
2021/10/01 10:04:13;;;;;;;14.40;6.43;;;;;;;18.34;36.31;96054.97;5024019;28;20440;-65
2021/10/01 10:06:45;;;;;;;13.93;5.67;;;;;;;18.46;37.38;96045.63;5008564;28;20445;-66
2021/10/01 10:09:13;;;;;;;8.03;5.40;;;;;;;18.32;36.65;96052.56;5009484;28;20540;-64
2021/10/01 10:11:41;;;;;;;9.80;5.20;;;;;;;17.77;34.46;96053.66;5009702;28;20437;-64
2021/10/01 10:14:12;;;;;;;9.23;5.47;;;;;;;18.36;34.90;96050.94;5009254;28;21057;-65
2021/10/01 10:16:40;;;;;;;10.73;5.23;;;;;;;18.90;35.51;96040.97;5009306;28;20544;-66
2021/10/01 10:19:15;;;;;;;16.43;6.07;;;;;;;18.47;34.81;96041.88;5010052;28;20451;-66
2021/10/01 10:21:42;;;;;;;10.13;5.57;;;;;;;18.45;35.59;96049.31;5008997;28;20838;-65
2021/10/01 10:24:09;;;;;;;11.30;5.87;;;;;;;18.20;36.02;96049.47;5009125;28;20452;-66
2021/10/01 10:26:35;;;;;;;10.73;5.83;;;;;;;18.14;34.89;96054.00;5008732;28;20480;-65
2021/10/01 10:29:05;;;;;;;7.77;5.40;;;;;;;18.26;35.99;96048.38;5008975;28;20607;-64
2021/10/01 10:31:34;;;;;;;11.10;5.70;;;;;;;18.37;35.91;96049.91;5008520;28;20456;-65
2021/10/01 10:34:02;;;;;;;9.10;5.63;;;;;;;17.75;35.60;96044.41;5008942;28;20571;-66
2021/10/01 10:36:41;;;;;;;8.07;5.40;;;;;;;18.36;35.79;96040.31;5022081;28;20285;-66
2021/10/01 10:39:11;;;;;;;7.77;5.27;;;;;;;18.57;35.69;96041.81;5009340;28;20510;-66
2021/10/01 10:41:42;;;;;;;14.10;5.90;;;;;;;18.39;36.65;96044.31;5008208;28;20866;-65
2021/10/01 10:44:10;;;;;;;9.03;5.40;;;;;;;18.23;35.59;96048.91;5009160;28;20448;-64
2021/10/01 10:46:37;;;;;;;10.33;6.40;;;;;;;18.31;36.11;96043.03;5008227;28;20451;-66
2021/10/01 10:49:24;;;;;;;7.30;6.40;;;;;;;18.53;35.74;96039.97;5009134;28;20536;-65
2021/10/01 10:52:36;;;;;;;14.90;6.33;;;;;;;18.56;36.75;96029.59;5008378;28;20441;-65
2021/10/01 10:55:11;;;;;;;12.37;6.03;;;;;;;18.60;36.95;96025.31;5009724;28;20978;-65
2021/10/01 10:57:42;;;;;;;8.97;7.33;;;;;;;18.47;37.40;96025.94;5011845;28;20566;-64
2021/10/01 11:00:40;;;;;;;15.83;6.63;;;;;;;18.54;38.33;96026.44;5009957;28;20194;-65
2021/10/01 11:03:22;;;;;;;14.03;6.10;;;;;;;18.68;37.02;96018.63;4992311;28;20981;-65
2021/10/01 11:06:08;;;;;;;9.27;5.97;;;;;;;18.60;37.41;96022.66;4999625;28;20232;-64
2021/10/01 11:08:40;;;;;;;10.40;5.93;;;;;;;18.36;36.71;96013.78;5012569;28;20441;-64
2021/10/01 11:11:37;;;;;;;10.17;6.00;;;;;;;17.72;36.59;96013.13;5011575;28;20453;-65
2021/10/01 11:14:16;;;;;;;14.27;6.17;;;;;;;18.30;37.41;96014.91;5011960;28;20197;-64
2021/10/01 11:17:02;;;;;;;8.37;6.17;;;;;;;18.50;36.69;96006.03;5012038;28;20437;-65
2021/10/01 11:19:40;;;;;;;9.97;6.23;;;;;;;18.39;36.27;96010.59;5012060;28;20448;-65
2021/10/01 11:22:32;;;;;;;8.40;6.07;;;;;;;18.59;36.69;96002.50;5011624;28;20483;-66
2021/10/01 11:25:06;;;;;;;10.37;6.00;;;;;;;18.10;35.94;96013.16;5006408;28;20532;-66
2021/10/01 11:27:45;;;;;;;9.20;6.40;;;;;;;18.61;35.59;95997.69;5019460;28;21037;-67
2021/10/01 11:30:12;;;;;;;10.97;5.90;;;;;;;18.71;36.16;95996.81;5009185;28;20954;-65
2021/10/01 11:32:40;;;;;;;12.97;6.00;;;;;;;18.77;35.75;96004.47;5010852;28;20467;-65
2021/10/01 11:35:07;;;;;;;7.73;6.03;;;;;;;18.57;37.09;95994.03;5011522;28;20436;-65
2021/10/01 11:37:38;;;;;;;10.03;6.07;;;;;;;18.65;35.86;95992.66;5011223;28;20461;-65
2021/10/01 11:40:12;;;;;;;7.97;6.30;;;;;;;18.71;37.05;95994.97;5000978;28;20478;-66
2021/10/01 11:42:43;;;;;;;8.93;6.83;;;;;;;18.86;37.26;95989.53;5005980;28;20725;-66
2021/10/01 11:45:15;;;;;;;35.07;24.83;;;;;;;19.16;35.53;95991.84;5000427;28;20451;-66
2021/10/01 11:48:02;;;;;;;16.87;7.00;;;;;;;19.26;35.96;95980.31;5009494;28;20447;-65
2021/10/01 11:50:36;;;;;;;17.73;11.43;;;;;;;19.10;37.25;95978.91;5002380;28;20543;-66
2021/10/01 11:53:05;;;;;;;12.13;7.43;;;;;;;18.98;36.34;95981.16;5008269;28;20448;-66
2021/10/01 11:55:35;;;;;;;10.20;6.00;;;;;;;18.06;35.65;95982.19;5018573;28;20797;-64
2021/10/01 11:58:15;;;;;;;15.13;9.90;;;;;;;18.74;36.28;95978.47;5021543;28;20942;-65
2021/10/01 12:00:42;;;;;;;11.07;8.20;;;;;;;18.54;35.52;95983.19;5011571;28;20445;-65
2021/10/01 12:03:14;;;;;;;9.90;7.03;;;;;;;18.69;36.73;95977.72;5010486;28;20575;-64
2021/10/01 12:05:50;;;;;;;11.33;7.17;;;;;;;18.94;36.62;95966.88;5012311;28;20452;-65
2021/10/01 12:08:20;;;;;;;31.57;24.43;;;;;;;19.05;36.65;95965.66;5010581;28;20539;-65
2021/10/01 12:10:50;;;;;;;6.93;6.23;;;;;;;18.87;34.96;95964.53;5011818;28;20256;-66
2021/10/01 12:13:35;;;;;;;9.07;6.83;;;;;;;18.69;35.93;95962.59;5011763;28;20875;-66
2021/10/01 12:16:12;;;;;;;9.27;6.93;;;;;;;18.67;35.88;95962.06;5010353;28;20445;-65
2021/10/01 12:18:44;;;;;;;11.30;7.30;;;;;;;18.54;36.04;95964.59;5010905;28;20201;-64
2021/10/01 12:21:21;;;;;;;9.37;6.73;;;;;;;18.52;35.24;95958.78;5010087;28;20978;-66
2021/10/01 12:23:59;;;;;;;12.03;6.67;;;;;;;18.54;35.94;95967.25;5010681;28;20206;-66
2021/10/01 12:26:35;;;;;;;11.70;7.10;;;;;;;19.14;36.42;95958.69;5010227;28;20472;-65
2021/10/01 12:29:10;;;;;;;9.00;6.80;;;;;;;19.40;36.06;95959.19;5010506;28;20816;-65
2021/10/01 12:31:45;;;;;;;11.27;7.23;;;;;;;19.54;36.21;95950.25;5010318;28;20475;-66
2021/10/01 12:34:24;;;;;;;12.67;6.87;;;;;;;19.42;35.74;95962.34;5010687;28;20448;-67
2021/10/01 12:36:57;;;;;;;15.90;7.27;;;;;;;19.32;36.06;95950.00;4998243;28;20584;-67
2021/10/01 12:39:26;;;;;;;9.73;6.43;;;;;;;19.30;34.89;95948.66;5010289;28;20213;-65
2021/10/01 12:42:02;;;;;;;12.03;6.40;;;;;;;19.32;35.36;95951.84;5009743;28;20811;-64
2021/10/01 12:44:32;;;;;;;13.63;8.03;;;;;;;19.35;35.73;95945.97;5009723;28;20206;-67
2021/10/01 12:47:11;;;;;;;13.23;6.93;;;;;;;19.10;35.70;95942.50;5010442;28;20515;-64
2021/10/01 12:49:38;;;;;;;12.87;6.87;;;;;;;19.12;35.72;95948.31;5009606;28;20567;-65
2021/10/01 12:52:11;;;;;;;10.40;6.97;;;;;;;19.09;35.79;95937.47;5009975;28;20233;-65
2021/10/01 12:54:48;;;;;;;11.13;6.83;;;;;;;19.19;35.08;95938.16;5010714;28;20436;-65
2021/10/01 12:57:24;;;;;;;13.57;9.03;;;;;;;19.12;36.37;95921.75;5010149;28;20579;-64
2021/10/01 13:00:06;;;;;;;10.27;7.77;;;;;;;19.22;35.93;95939.44;5009761;28;20305;-66
2021/10/01 13:02:48;;;;;;;9.87;6.50;;;;;;;19.40;36.72;95940.56;4997977;28;20475;-67
2021/10/01 13:05:25;;;;;;;13.57;7.33;;;;;;;20.12;36.70;95935.59;4996273;28;20209;-64
2021/10/01 13:07:58;;;;;;;11.17;7.70;;;;;;;20.87;34.92;95922.88;4996977;28;20248;-65
2021/10/01 13:10:49;;;;;;;9.80;6.27;;;;;;;20.87;33.07;95930.06;5010544;28;20208;-65
2021/10/01 13:13:21;;;;;;;9.20;6.47;;;;;;;20.96;32.35;95925.66;5009046;28;20201;-65
2021/10/01 13:15:55;;;;;;;11.40;6.53;;;;;;;21.46;31.90;95910.56;5009502;28;20652;-64
2021/10/01 13:18:35;;;;;;;11.93;7.20;;;;;;;21.50;32.76;95908.84;5009079;28;20201;-64
2021/10/01 13:21:22;;;;;;;8.37;6.23;;;;;;;20.69;31.45;95913.06;5009585;28;20205;-65
2021/10/01 13:23:54;;;;;;;8.47;6.03;;;;;;;20.69;32.08;95910.41;5009871;28;20225;-66
2021/10/01 13:26:29;;;;;;;7.93;5.67;;;;;;;20.97;31.43;95909.34;5009048;28;20300;-63
2021/10/01 13:29:03;;;;;;;8.33;6.07;;;;;;;21.56;30.37;95895.13;5008590;28;20198;-66